createdAt,value
2019-04-07T00:02:07.424Z,95.67
2019-04-07T00:06:06.572Z,87.47
2019-04-07T00:10:11.060Z,112.07
2019-04-07T00:14:10.407Z,90.43
2019-04-07T00:18:10.360Z,80.77
2019-04-07T00:22:10.204Z,75.83
2019-04-07T00:26:09.731Z,82.70
2019-04-07T00:30:09.013Z,83.23
2019-04-07T00:34:07.712Z,84.03
2019-04-07T00:38:06.309Z,88.20
2019-04-07T00:42:04.917Z,86.73
2019-04-07T00:46:03.622Z,86.40
2019-04-07T00:50:02.918Z,96.60
2019-04-07T00:54:02.198Z,94.17
2019-04-07T00:58:01.069Z,93.20
2019-04-07T01:02:00.335Z,93.70
2019-04-07T01:06:00.201Z,88.50
2019-04-07T01:09:58.819Z,85.50
2019-04-07T01:13:58.031Z,87.53
2019-04-07T01:17:56.824Z,82.07
2019-04-07T01:21:55.792Z,83.27
2019-04-07T01:25:55.211Z,86.63
2019-04-07T01:29:55.526Z,80.80
2019-04-07T01:33:55.634Z,85.77
2019-04-07T01:37:54.217Z,82.47
2019-04-07T01:42:03.798Z,83.00
2019-04-07T01:46:06.332Z,86.20
2019-04-07T01:50:28.551Z,89.93
2019-04-07T01:54:38.475Z,82.80
2019-04-07T01:58:41.689Z,77.70
2019-04-07T02:02:56.831Z,82.00
2019-04-07T02:07:13.798Z,82.90
2019-04-07T02:11:14.601Z,74.40
2019-04-07T02:15:16.408Z,82.33
2019-04-07T02:19:17.411Z,75.60
2019-04-07T02:23:23.924Z,76.40
2019-04-07T02:27:36.422Z,75.93
2019-04-07T02:31:42.697Z,76.80
2019-04-07T02:35:48.918Z,77.03
2019-04-07T02:40:03.340Z,77.87
2019-04-07T02:44:06.875Z,72.67
2019-04-07T02:48:18.106Z,79.40
2019-04-07T02:52:31.818Z,81.63
2019-04-07T02:56:32.588Z,76.90
2019-04-07T03:00:44.819Z,77.90
2019-04-07T03:04:56.840Z,75.67
2019-04-07T03:09:00.505Z,75.10
2019-04-07T03:13:01.007Z,76.17
2019-04-07T03:17:02.316Z,77.97
2019-04-07T03:21:17.994Z,76.30
2019-04-07T03:25:20.656Z,70.37
2019-04-07T03:29:26.919Z,73.87
2019-04-07T03:33:42.602Z,76.43
2019-04-07T03:37:50.117Z,79.33
2019-04-07T03:42:08.661Z,68.07
2019-04-07T03:46:12.479Z,67.87
2019-04-07T03:50:21.830Z,75.27
2019-04-07T03:54:31.647Z,75.33
2019-04-07T03:58:37.724Z,70.60
2019-04-07T04:02:39.018Z,81.50
2019-04-07T04:06:57.504Z,70.73
2019-04-07T04:11:05.066Z,70.00
2019-04-07T04:15:06.750Z,81.70
2019-04-07T04:19:06.768Z,70.13
2019-04-07T04:23:05.935Z,75.60
2019-04-07T04:27:05.346Z,66.07
2019-04-07T04:31:04.647Z,61.80
2019-04-07T04:35:06.457Z,70.53
2019-04-07T04:39:10.011Z,74.07
2019-04-07T04:43:07.340Z,63.20
2019-04-07T04:47:05.982Z,64.40
2019-04-07T04:51:05.359Z,65.23
2019-04-07T04:55:05.063Z,73.03
2019-04-07T04:59:04.104Z,66.87
2019-04-07T05:03:02.984Z,67.37
2019-04-07T05:07:04.306Z,64.53
2019-04-07T05:11:03.133Z,67.37
2019-04-07T05:15:04.132Z,70.43
2019-04-07T05:19:02.973Z,57.13
2019-04-07T05:23:01.797Z,61.17
2019-04-07T05:27:01.834Z,66.53
2019-04-07T05:31:00.580Z,59.63
2019-04-07T05:34:59.859Z,66.63
2019-04-07T05:38:58.434Z,63.80
2019-04-07T05:42:57.476Z,56.00
2019-04-07T05:46:56.130Z,62.60
2019-04-07T05:50:56.151Z,62.90
2019-04-07T05:54:56.156Z,61.50
2019-04-07T05:58:55.080Z,57.83
2019-04-07T06:02:53.700Z,63.37
2019-04-07T06:06:55.008Z,62.47
2019-04-07T06:10:57.569Z,60.13
2019-04-07T06:14:53.480Z,62.20
2019-04-07T06:18:52.351Z,67.70
2019-04-07T06:22:53.495Z,58.50
2019-04-07T06:26:51.287Z,71.03
2019-04-07T06:30:49.939Z,62.20
2019-04-07T06:34:49.915Z,69.10
2019-04-07T06:38:52.337Z,57.93
2019-04-07T06:42:49.096Z,57.43
2019-04-07T06:47:08.782Z,63.00
2019-04-07T06:51:09.537Z,58.20
2019-04-07T06:55:19.057Z,59.73
2019-04-07T06:59:19.679Z,54.73
2019-04-07T07:03:23.751Z,60.27
2019-04-07T07:07:24.049Z,56.87
2019-04-07T07:11:32.357Z,61.67
2019-04-07T07:15:44.102Z,54.73
2019-04-07T07:19:48.791Z,59.37
2019-04-07T07:23:49.033Z,59.40
2019-04-07T07:27:48.747Z,57.13
2019-04-07T07:31:48.311Z,53.73
2019-04-07T07:35:49.197Z,51.60
2019-04-07T07:39:49.585Z,51.27
2019-04-07T07:43:48.550Z,55.50
2019-04-07T07:47:51.375Z,53.63
2019-04-07T07:52:12.527Z,47.90
2019-04-07T07:56:13.109Z,48.57
2019-04-07T08:00:12.972Z,44.73
2019-04-07T08:04:11.676Z,49.37
2019-04-07T08:08:14.964Z,41.23
2019-04-07T08:12:13.991Z,40.60
2019-04-07T08:16:12.675Z,49.80
2019-04-07T08:20:14.165Z,44.03
2019-04-07T08:24:16.425Z,41.13
2019-04-07T08:28:13.571Z,41.53
2019-04-07T08:32:13.275Z,42.30
2019-04-07T08:36:22.703Z,41.87
2019-04-07T08:40:21.373Z,35.00
2019-04-07T08:44:20.476Z,39.00
2019-04-07T08:48:20.863Z,33.97
2019-04-07T08:52:23.446Z,33.33
2019-04-07T08:56:24.833Z,31.63
2019-04-07T09:00:27.142Z,28.60
2019-04-07T09:04:26.658Z,29.00
2019-04-07T09:08:26.047Z,28.47
2019-04-07T09:12:27.744Z,29.20
2019-04-07T09:16:39.378Z,24.73
2019-04-07T09:20:49.417Z,21.50
2019-04-07T09:25:08.512Z,22.97
2019-04-07T09:29:20.970Z,21.33
2019-04-07T09:33:21.618Z,23.43
2019-04-07T09:37:38.853Z,21.20
2019-04-07T09:41:41.628Z,21.83
2019-04-07T09:45:49.920Z,15.23
2019-04-07T09:49:59.442Z,12.60
2019-04-07T09:54:00.298Z,16.07
2019-04-07T09:58:01.316Z,13.40
2019-04-07T10:02:20.738Z,15.93
2019-04-07T10:06:39.083Z,14.37
2019-04-07T10:10:44.564Z,20.13
2019-04-07T10:14:51.015Z,19.13
2019-04-07T10:23:10.826Z,18.80
2019-04-07T10:27:29.658Z,18.13
2019-04-07T10:31:46.516Z,19.47
2019-04-07T10:36:09.284Z,21.10
2019-04-07T10:40:19.563Z,20.47
2019-04-07T10:44:18.282Z,24.03
2019-04-07T10:48:31.580Z,18.73
2019-04-07T10:52:49.319Z,24.60
2019-04-07T10:56:52.522Z,21.23
2019-04-07T11:00:56.382Z,20.27
2019-04-07T11:04:57.307Z,20.47
2019-04-07T11:08:57.885Z,18.07
2019-04-07T11:13:05.189Z,17.10
2019-04-07T11:17:06.399Z,20.50
2019-04-07T11:21:19.514Z,21.13
2019-04-07T11:25:32.334Z,16.87
2019-04-07T11:29:48.526Z,18.13
2019-04-07T11:33:55.506Z,15.53
2019-04-07T11:38:05.766Z,14.40
2019-04-07T11:42:06.482Z,12.63
2019-04-07T11:46:22.032Z,16.57
2019-04-07T11:50:50.516Z,16.87
2019-04-07T11:55:00.928Z,15.50
2019-04-07T11:59:02.588Z,16.20
2019-04-07T12:03:03.977Z,14.47
2019-04-07T12:07:10.114Z,20.53
2019-04-07T12:11:13.108Z,16.37
2019-04-07T12:15:26.949Z,14.70
2019-04-07T12:19:42.974Z,17.67
2019-04-07T12:23:58.361Z,17.30
2019-04-07T12:28:01.345Z,18.30
2019-04-07T12:32:10.535Z,17.33
2019-04-07T12:36:20.531Z,20.13
2019-04-07T12:40:37.718Z,17.27
2019-04-07T12:44:38.377Z,14.90
2019-04-07T12:48:55.352Z,15.57
2019-04-07T12:53:01.220Z,21.53
2019-04-07T12:57:03.633Z,22.73
2019-04-07T13:01:17.677Z,20.40
2019-04-07T13:05:30.099Z,17.60
2019-04-07T13:09:32.317Z,17.53
2019-04-07T13:13:34.255Z,15.30
2019-04-07T13:17:38.040Z,17.20
2019-04-07T13:21:44.186Z,17.37
2019-04-07T13:25:56.669Z,18.63
2019-04-07T13:30:07.235Z,20.43
2019-04-07T13:34:23.453Z,14.50
2019-04-07T13:38:26.222Z,18.93
2019-04-07T13:42:43.046Z,14.77
2019-04-07T13:46:49.703Z,19.43
2019-04-07T13:51:02.109Z,16.83
2019-04-07T13:55:07.732Z,16.37
2019-04-07T13:59:09.981Z,19.00
2019-04-07T14:03:13.443Z,16.77
2019-04-07T14:07:16.893Z,18.90
2019-04-07T14:11:35.055Z,19.70
2019-04-07T14:15:52.143Z,23.47
2019-04-07T14:19:55.256Z,20.03
2019-04-07T14:24:13.496Z,19.80
2019-04-07T14:28:16.793Z,14.87
2019-04-07T14:32:17.333Z,17.60
2019-04-07T14:36:27.249Z,17.73
2019-04-07T14:40:44.563Z,18.00
2019-04-07T14:44:47.596Z,17.13
2019-04-07T14:48:54.371Z,15.40
2019-04-07T14:53:10.967Z,17.13
2019-04-07T14:57:12.718Z,21.17
2019-04-07T15:01:16.080Z,20.67
2019-04-07T15:05:23.213Z,18.10
2019-04-07T15:09:22.476Z,15.83
2019-04-07T15:13:28.207Z,18.00
2019-04-07T15:17:27.169Z,16.57
2019-04-07T15:21:25.897Z,18.97
2019-04-07T15:25:26.313Z,18.40
2019-04-07T15:29:25.360Z,18.30
2019-04-07T15:33:24.384Z,15.97
2019-04-07T15:37:25.066Z,16.47
2019-04-07T15:41:24.157Z,14.57
2019-04-07T15:45:23.465Z,14.70
2019-04-07T15:49:27.363Z,14.75
2019-04-07T15:53:24.573Z,13.08
2019-04-07T15:57:24.021Z,16.82
2019-04-07T16:01:22.701Z,16.80
2019-04-07T16:05:21.556Z,18.23
2019-04-07T16:09:34.551Z,15.27
2019-04-07T16:13:22.847Z,14.90
2019-04-07T16:17:21.511Z,17.27
2019-04-07T16:21:23.032Z,16.93
2019-04-07T16:25:26.204Z,16.73
2019-04-07T16:29:21.888Z,16.47
2019-04-07T16:33:20.652Z,19.50
2019-04-07T16:37:20.339Z,19.63
2019-04-07T16:41:22.339Z,21.43
2019-04-07T16:45:22.194Z,21.43
2019-04-07T16:49:21.715Z,17.97
2019-04-07T16:53:20.603Z,23.07
2019-04-07T16:57:19.503Z,21.77
2019-04-07T17:01:18.632Z,18.20
2019-04-07T17:05:21.391Z,25.83
2019-04-07T17:09:23.110Z,20.33
2019-04-07T17:13:32.111Z,19.10
2019-04-07T17:17:23.033Z,20.20
2019-04-07T17:21:22.413Z,22.90
2019-04-07T17:25:23.070Z,28.87
2019-04-07T17:29:22.659Z,22.63
2019-04-07T17:33:21.995Z,24.23
2019-04-07T17:37:21.770Z,27.93
2019-04-07T17:41:21.423Z,18.50
2019-04-07T17:45:22.491Z,20.00
2019-04-07T17:49:26.309Z,22.33
2019-04-07T17:53:45.443Z,21.27
2019-04-07T17:58:01.511Z,19.47
2019-04-07T18:02:02.860Z,22.93
2019-04-07T18:06:16.073Z,20.73
2019-04-07T18:10:17.344Z,20.87
2019-04-07T18:14:34.155Z,23.57
2019-04-07T18:18:41.842Z,24.97
2019-04-07T18:22:54.813Z,21.07
2019-04-07T18:26:55.069Z,23.53
2019-04-07T18:31:05.340Z,20.60
2019-04-07T18:35:07.602Z,21.53
2019-04-07T18:39:16.027Z,21.70
2019-04-07T18:43:30.064Z,24.17
2019-04-07T18:47:48.265Z,22.97
2019-04-07T18:51:54.694Z,23.30
2019-04-07T18:56:01.670Z,21.77
2019-04-07T19:00:05.938Z,22.00
2019-04-07T19:04:26.610Z,21.30
2019-04-07T19:08:41.346Z,27.37
2019-04-07T19:12:41.699Z,24.33
2019-04-07T19:16:41.938Z,30.90
2019-04-07T19:20:43.043Z,23.47
2019-04-07T19:24:43.845Z,25.13
2019-04-07T19:28:53.978Z,26.63
2019-04-07T19:33:01.201Z,24.50
2019-04-07T19:37:06.016Z,28.13
2019-04-07T19:41:16.718Z,26.53
2019-04-07T19:45:24.743Z,28.93
2019-04-07T19:49:25.609Z,32.67
2019-04-07T19:53:32.888Z,31.23
2019-04-07T19:57:36.496Z,31.50
2019-04-07T20:01:40.039Z,28.83
2019-04-07T20:05:42.936Z,26.20
2019-04-07T20:09:59.525Z,28.63
2019-04-07T20:14:13.014Z,26.63
2019-04-07T20:18:28.302Z,24.27
2019-04-07T20:22:44.609Z,30.23
2019-04-07T20:27:01.362Z,26.20
2019-04-07T20:31:03.786Z,30.77
2019-04-07T20:35:03.665Z,23.50
2019-04-07T20:39:09.656Z,29.37
2019-04-07T20:43:16.653Z,30.73
2019-04-07T20:47:27.514Z,29.53
2019-04-07T20:51:31.237Z,28.30
2019-04-07T20:55:41.349Z,27.70
2019-04-07T20:59:50.159Z,24.50
2019-04-07T21:03:47.630Z,27.77
2019-04-07T21:07:51.423Z,31.23
2019-04-07T21:12:01.148Z,32.90
2019-04-07T21:20:39.038Z,27.77
2019-04-07T21:24:51.350Z,33.47
2019-04-07T21:28:50.446Z,36.73
2019-04-07T21:32:56.845Z,38.10
2019-04-07T21:37:13.290Z,34.73
2019-04-07T21:41:33.860Z,34.83
2019-04-07T21:45:45.714Z,37.20
2019-04-07T21:49:44.354Z,33.83
2019-04-07T21:53:50.524Z,34.37
2019-04-07T21:58:09.269Z,33.37
2019-04-07T22:02:15.935Z,40.50
2019-04-07T22:06:37.321Z,36.63
2019-04-07T22:10:36.097Z,34.40
2019-04-07T22:14:39.773Z,39.90
2019-04-07T22:18:37.533Z,39.57
2019-04-07T22:22:36.000Z,37.43
2019-04-07T22:26:34.974Z,37.13
2019-04-07T22:30:38.916Z,46.53
2019-04-07T22:34:34.339Z,39.93
2019-04-07T22:38:36.261Z,43.13
2019-04-07T22:42:35.283Z,40.13
2019-04-07T22:46:33.890Z,43.30
2019-04-07T22:50:35.352Z,41.00
2019-04-07T22:54:32.873Z,44.03
2019-04-07T22:58:31.934Z,37.93
2019-04-07T23:02:34.966Z,40.13
2019-04-07T23:06:36.258Z,41.00
2019-04-07T23:10:37.957Z,42.43
2019-04-07T23:14:36.574Z,44.70
2019-04-07T23:18:36.086Z,37.60
2019-04-07T23:22:34.887Z,41.87
2019-04-07T23:26:34.118Z,45.90
2019-04-07T23:30:33.345Z,41.17
2019-04-07T23:34:32.973Z,44.30
2019-04-07T23:38:33.736Z,42.53
2019-04-07T23:42:34.014Z,39.70
2019-04-07T23:46:32.594Z,44.83
2019-04-07T23:50:31.508Z,42.03
2019-04-07T23:54:31.010Z,43.70
2019-04-07T23:58:29.695Z,52.37
